Time;durP1;ratioP1;P1;durP2;ratioP2;P2;SDS_P1;SDS_P2;PMS_P1;PMS_P2;Temp;Humidity;BMP_temperature;BMP_pressure;BME280_temperature;BME280_humidity;BME280_pressure;Samples;Min_cycle;Max_cycle;Signal;HPM_P1;HPM_P2
2021/01/04 00:01:37;;;;;;;1.17;0.90;;;21.80;31.20;;;;;;4989672;28;20501;-45
2021/01/04 00:04:22;;;;;;;1.65;1.00;;;21.80;31.20;;;;;;4990032;28;20456;-44
2021/01/04 00:07:10;;;;;;;1.38;0.90;;;21.80;31.20;;;;;;4984993;28;20038;-45
2021/01/04 00:09:57;;;;;;;1.65;1.10;;;21.70;31.20;;;;;;4989066;28;20068;-43
2021/01/04 00:12:41;;;;;;;2.00;1.13;;;21.70;31.20;;;;;;4991297;28;20125;-44
2021/01/04 00:15:15;;;;;;;1.30;1.00;;;21.70;31.20;;;;;;4987581;28;20472;-44
2021/01/04 00:18:09;;;;;;;1.83;1.23;;;21.70;31.80;;;;;;4991466;28;20520;-42
2021/01/04 00:20:53;;;;;;;1.20;1.10;;;21.70;31.20;;;;;;4982405;28;20042;-44
2021/01/04 00:23:48;;;;;;;1.08;0.82;;;21.70;31.20;;;;;;4979020;28;20330;-42
2021/01/04 00:26:39;;;;;;;2.05;1.25;;;21.70;31.10;;;;;;4993014;28;20438;-45
2021/01/04 00:29:05;;;;;;;1.65;1.20;;;21.70;31.10;;;;;;4984190;28;20052;-45
2021/01/04 00:31:37;;;;;;;1.42;1.20;;;21.70;31.20;;;;;;4997420;28;20035;-43
2021/01/04 00:34:02;;;;;;;2.40;1.23;;;21.70;31.20;;;;;;4990989;28;20034;-46
2021/01/04 00:36:34;;;;;;;1.83;1.30;;;21.70;31.20;;;;;;4994690;28;20034;-44
2021/01/04 00:39:11;;;;;;;1.45;1.05;;;21.70;31.20;;;;;;4988124;28;20042;-42
2021/01/04 00:42:02;;;;;;;1.80;1.17;;;21.60;31.10;;;;;;4990006;28;20105;-43
2021/01/04 00:44:50;;;;;;;1.38;1.20;;;21.60;31.10;;;;;;4993635;28;20087;-43
2021/01/04 00:47:42;;;;;;;1.40;0.98;;;21.60;31.10;;;;;;4987232;28;20041;-42
2021/01/04 00:50:31;;;;;;;1.23;1.05;;;21.60;31.10;;;;;;4997232;28;20026;-43
2021/01/04 00:53:05;;;;;;;1.33;0.98;;;21.60;31.10;;;;;;4988727;28;20401;-43
2021/01/04 00:55:54;;;;;;;1.80;1.30;;;21.60;31.10;;;;;;4983679;28;20031;-44
2021/01/04 00:58:25;;;;;;;1.35;1.02;;;21.60;31.30;;;;;;4986551;28;20545;-44
2021/01/04 01:01:16;;;;;;;2.10;1.30;;;21.60;31.40;;;;;;4984517;28;20027;-44
2021/01/04 01:04:03;;;;;;;1.40;1.10;;;21.60;31.40;;;;;;4988914;28;20370;-43
2021/01/04 01:06:37;;;;;;;2.25;1.45;;;21.60;31.40;;;;;;4985685;28;20047;-42
2021/01/04 01:09:06;;;;;;;1.15;1.00;;;21.50;31.30;;;;;;4988145;28;20075;-41
2021/01/04 01:11:58;;;;;;;1.50;1.00;;;21.50;31.30;;;;;;4992057;28;20105;-44
2021/01/04 01:14:35;;;;;;;2.05;1.30;;;21.50;31.30;;;;;;4991391;28;20026;-45
2021/01/04 01:17:26;;;;;;;1.50;1.10;;;21.50;31.30;;;;;;4988159;28;20330;-43
2021/01/04 01:19:56;;;;;;;2.10;1.30;;;21.50;31.30;;;;;;4985856;28;20416;-44
2021/01/04 01:22:33;;;;;;;0.85;0.85;;;21.50;31.30;;;;;;4987314;28;20038;-44
2021/01/04 01:25:16;;;;;;;1.85;1.05;;;21.50;31.30;;;;;;4989162;28;20042;-45
2021/01/04 01:28:00;;;;;;;2.30;1.30;;;21.50;31.30;;;;;;4994262;28;20031;-43
2021/01/04 01:31:02;;;;;;;1.50;1.30;;;21.50;31.30;;;;;;4991235;28;20357;-43
2021/01/04 01:34:02;;;;;;;2.45;1.30;;;21.50;31.20;;;;;;4987270;28;20113;-45
2021/01/04 01:36:42;;;;;;;2.13;1.30;;;21.40;31.20;;;;;;4988681;28;20350;-44
2021/01/04 01:39:25;;;;;;;1.33;1.00;;;21.40;31.20;;;;;;4979864;28;20442;-43
2021/01/04 01:42:15;;;;;;;1.23;1.13;;;21.40;31.20;;;;;;4990633;28;20034;-42
2021/01/04 01:45:07;;;;;;;1.65;1.10;;;21.40;31.30;;;;;;4979580;28;20039;-45
2021/01/04 01:47:44;;;;;;;1.27;0.93;;;21.40;31.30;;;;;;4988698;28;20030;-46
2021/01/04 01:50:27;;;;;;;2.55;1.10;;;21.40;31.30;;;;;;4982080;28;20023;-43
2021/01/04 01:53:24;;;;;;;1.45;0.93;;;21.40;31.30;;;;;;4981205;28;20417;-44
2021/01/04 01:55:53;;;;;;;3.00;1.30;;;21.40;31.30;;;;;;4963392;28;20457;-42
2021/01/04 01:58:56;;;;;;;2.20;1.15;;;21.40;31.30;;;;;;4988559;28;20149;-43
2021/01/04 02:01:55;;;;;;;1.65;1.25;;;21.40;31.30;;;;;;4962806;28;20121;-43
2021/01/04 02:04:44;;;;;;;1.95;1.10;;;21.40;31.30;;;;;;4963810;28;20458;-44
2021/01/04 02:07:28;;;;;;;1.77;1.05;;;21.40;31.30;;;;;;4984932;28;20126;-41
2021/01/04 02:10:08;;;;;;;1.40;0.95;;;21.30;31.30;;;;;;4993714;28;20026;-42
2021/01/04 02:12:50;;;;;;;1.70;1.20;;;21.40;31.30;;;;;;4993826;28;20045;-42
2021/01/04 02:15:21;;;;;;;1.85;1.38;;;21.40;31.30;;;;;;4985571;28;20035;-43
2021/01/04 02:17:49;;;;;;;1.30;1.20;;;21.30;31.30;;;;;;4988282;28;20034;-42
2021/01/04 02:20:52;;;;;;;1.10;0.90;;;21.30;31.30;;;;;;4983964;28;20039;-42
2021/01/04 02:23:41;;;;;;;1.25;1.00;;;21.30;31.30;;;;;;4984366;28;20034;-42
2021/01/04 02:26:40;;;;;;;1.40;0.90;;;21.30;31.20;;;;;;4986528;28;20069;-47
2021/01/04 02:29:14;;;;;;;1.25;0.88;;;21.30;31.30;;;;;;4933796;28;20514;-42
2021/01/04 02:31:45;;;;;;;1.17;0.90;;;21.30;31.40;;;;;;4979838;28;20433;-45
2021/01/04 02:34:15;;;;;;;1.25;0.93;;;21.30;31.30;;;;;;4981418;28;20026;-43
2021/01/04 02:36:50;;;;;;;1.60;0.88;;;21.30;31.30;;;;;;4991537;28;20441;-44
2021/01/04 02:39:39;;;;;;;1.05;0.93;;;21.30;31.30;;;;;;4987984;28;20027;-43
2021/01/04 02:42:07;;;;;;;1.85;1.00;;;21.30;31.30;;;;;;4985849;28;20027;-43
2021/01/04 02:44:34;;;;;;;1.88;1.08;;;21.30;31.30;;;;;;4987032;28;20098;-43
2021/01/04 02:47:27;;;;;;;1.17;0.82;;;21.30;31.40;;;;;;4984688;28;20034;-42
2021/01/04 02:50:17;;;;;;;1.00;0.90;;;21.30;31.40;;;;;;4981659;28;20358;-44
2021/01/04 02:53:20;;;;;;;0.88;0.70;;;21.20;31.30;;;;;;4984065;28;20027;-44
2021/01/04 02:56:04;;;;;;;1.35;1.13;;;21.30;31.40;;;;;;4989385;28;20066;-43
2021/01/04 02:58:42;;;;;;;2.10;1.17;;;21.20;31.40;;;;;;4973563;28;20050;-45
2021/01/04 03:01:14;;;;;;;0.98;0.75;;;21.20;31.40;;;;;;4981408;28;20067;-42
2021/01/04 03:03:41;;;;;;;1.15;0.93;;;21.20;31.40;;;;;;4986238;28;20049;-41
2021/01/04 03:06:12;;;;;;;1.10;0.90;;;21.20;31.40;;;;;;4984668;28;20027;-43
2021/01/04 03:08:38;;;;;;;1.65;0.80;;;21.20;31.40;;;;;;4959936;28;20356;-44
2021/01/04 03:11:11;;;;;;;0.95;0.70;;;21.20;31.40;;;;;;4972838;28;20142;-48
2021/01/04 03:13:51;;;;;;;1.27;1.00;;;21.20;31.40;;;;;;4965961;28;20402;-45
2021/01/04 03:16:44;;;;;;;1.40;0.90;;;21.20;31.40;;;;;;4965519;28;20027;-45
2021/01/04 03:19:15;;;;;;;1.10;0.73;;;21.20;31.40;;;;;;4969078;28;20513;-43
2021/01/04 03:21:41;;;;;;;0.93;0.80;;;21.20;31.40;;;;;;4971955;28;20078;-48
2021/01/04 03:24:11;;;;;;;1.27;0.90;;;21.20;31.40;;;;;;4960567;28;20031;-44
2021/01/04 03:27:03;;;;;;;0.95;0.77;;;21.20;31.40;;;;;;4973348;28;20045;-43
2021/01/04 03:29:29;;;;;;;1.20;0.80;;;21.20;31.40;;;;;;4966172;28;20450;-42
2021/01/04 03:31:56;;;;;;;1.25;0.95;;;21.10;31.40;;;;;;4965582;28;20119;-43
2021/01/04 03:34:22;;;;;;;1.23;0.80;;;21.10;31.40;;;;;;4966075;28;20027;-43
2021/01/04 03:36:48;;;;;;;1.10;0.70;;;21.10;31.40;;;;;;4960693;28;20041;-46
2021/01/04 03:39:14;;;;;;;1.40;0.80;;;21.10;31.40;;;;;;4959584;28;20040;-42
2021/01/04 03:41:40;;;;;;;0.95;0.70;;;21.10;31.40;;;;;;4964646;28;20128;-44
2021/01/04 03:44:06;;;;;;;1.08;0.90;;;21.10;31.40;;;;;;4962726;28;20541;-45
2021/01/04 03:46:32;;;;;;;1.23;0.90;;;21.10;31.40;;;;;;4963210;28;20041;-46
2021/01/04 03:48:58;;;;;;;1.10;0.90;;;21.10;31.40;;;;;;4967401;28;20023;-43
2021/01/04 03:51:24;;;;;;;0.70;0.63;;;21.10;31.40;;;;;;4971870;28;20462;-42
2021/01/04 03:53:49;;;;;;;1.23;0.80;;;21.10;31.50;;;;;;4963890;28;20042;-44
2021/01/04 03:56:20;;;;;;;1.13;0.80;;;21.10;31.50;;;;;;4957171;28;20082;-43
2021/01/04 03:58:46;;;;;;;0.88;0.77;;;21.10;31.50;;;;;;4961529;28;20042;-42
2021/01/04 04:01:12;;;;;;;0.85;0.57;;;21.10;31.50;;;;;;4970565;28;20109;-42
2021/01/04 04:03:38;;;;;;;1.10;0.75;;;21.10;31.50;;;;;;4964223;28;20054;-45
2021/01/04 04:06:04;;;;;;;1.13;0.80;;;21.10;31.50;;;;;;4961263;28;20230;-45
2021/01/04 04:08:30;;;;;;;1.00;0.70;;;21.10;31.50;;;;;;4976255;28;20125;-42
2021/01/04 04:10:56;;;;;;;0.60;0.60;;;21.10;31.50;;;;;;4981740;28;20043;-43
2021/01/04 04:13:22;;;;;;;1.08;0.80;;;21.10;31.50;;;;;;4978440;28;20078;-43
2021/01/04 04:15:48;;;;;;;1.23;0.80;;;21.10;31.50;;;;;;4978745;28;20114;-43
2021/01/04 04:18:14;;;;;;;0.70;0.65;;;21.10;31.50;;;;;;4977258;28;20049;-45
2021/01/04 04:20:39;;;;;;;0.88;0.60;;;21.00;31.50;;;;;;4980647;28;20426;-41
2021/01/04 04:23:05;;;;;;;1.40;0.80;;;21.00;31.50;;;;;;4986573;28;20109;-42
2021/01/04 04:25:31;;;;;;;0.90;0.70;;;21.00;31.50;;;;;;4984138;28;20054;-43
2021/01/04 04:27:57;;;;;;;1.10;0.90;;;21.00;31.50;;;;;;4982301;28;20078;-42
2021/01/04 04:30:25;;;;;;;1.13;0.60;;;21.00;31.50;;;;;;4980602;28;20126;-43
2021/01/04 04:32:58;;;;;;;1.38;0.70;;;21.00;31.50;;;;;;4978710;28;20089;-43
2021/01/04 04:35:25;;;;;;;1.15;0.60;;;21.00;31.50;;;;;;4988524;28;20062;-45
2021/01/04 04:37:51;;;;;;;1.30;0.68;;;21.00;31.60;;;;;;4987784;28;20030;-42
2021/01/04 04:40:21;;;;;;;0.95;0.70;;;21.00;31.60;;;;;;4980046;28;20093;-43
2021/01/04 04:42:47;;;;;;;0.80;0.70;;;21.00;31.60;;;;;;4990647;28;20036;-46
2021/01/04 04:45:22;;;;;;;1.08;0.73;;;21.00;31.60;;;;;;4984658;28;20502;-41
2021/01/04 04:48:22;;;;;;;0.82;0.60;;;21.00;31.60;;;;;;4985530;28;20041;-42
2021/01/04 04:50:51;;;;;;;1.02;0.77;;;21.00;31.60;;;;;;4982448;28;20026;-42
2021/01/04 04:53:41;;;;;;;0.65;0.60;;;21.00;31.60;;;;;;4977242;28;20027;-46
2021/01/04 04:56:51;;;;;;;1.00;0.75;;;21.00;31.60;;;;;;4982491;28;20049;-42
2021/01/04 04:59:22;;;;;;;0.85;0.60;;;21.00;31.60;;;;;;4979007;28;20137;-44
2021/01/04 05:02:17;;;;;;;1.00;0.70;;;21.00;31.70;;;;;;4980131;28;20042;-43
2021/01/04 05:05:31;;;;;;;0.88;0.70;;;21.00;31.70;;;;;;4989861;28;20383;-43
2021/01/04 05:08:06;;;;;;;0.65;0.50;;;20.90;31.80;;;;;;4970499;28;20054;-43
2021/01/04 05:10:37;;;;;;;1.73;0.90;;;20.90;32.50;;;;;;4974644;28;20038;-45
2021/01/04 05:13:18;;;;;;;1.45;0.93;;;20.90;31.80;;;;;;4982323;28;20447;-44
2021/01/04 05:15:48;;;;;;;1.23;0.80;;;20.90;31.90;;;;;;4982766;28;20401;-43
2021/01/04 05:18:51;;;;;;;1.00;0.63;;;20.90;31.80;;;;;;4983659;28;20438;-45
2021/01/04 05:21:38;;;;;;;1.75;0.80;;;20.90;31.80;;;;;;4979298;28;20105;-45
2021/01/04 05:24:41;;;;;;;0.77;0.68;;;20.90;31.80;;;;;;4978998;28;20039;-45
2021/01/04 05:27:28;;;;;;;1.05;0.60;;;20.90;31.80;;;;;;4981060;28;20049;-47
2021/01/04 05:30:32;;;;;;;0.90;0.60;;;20.90;31.80;;;;;;4968827;28;21885;-44
2021/01/04 05:33:29;;;;;;;0.70;0.55;;;20.80;31.70;;;;;;4996021;28;20035;-43
2021/01/04 05:36:06;;;;;;;1.17;0.60;;;20.80;31.90;;;;;;4979315;28;20031;-48
2021/01/04 05:39:02;;;;;;;0.70;0.68;;;20.80;31.70;;;;;;4985536;28;20042;-43
2021/01/04 05:41:51;;;;;;;0.90;0.65;;;20.80;31.70;;;;;;4997418;28;20038;-48
2021/01/04 05:44:47;;;;;;;1.02;0.60;;;20.80;31.70;;;;;;4987512;28;20047;-45
2021/01/04 05:47:20;;;;;;;0.93;0.80;;;20.80;31.70;;;;;;4982373;28;20034;-42
2021/01/04 05:49:54;;;;;;;1.95;0.60;;;20.80;31.70;;;;;;4980224;28;20066;-44
2021/01/04 05:52:20;;;;;;;1.17;0.52;;;20.80;31.80;;;;;;4981981;28;20027;-43
2021/01/04 05:54:46;;;;;;;0.80;0.57;;;20.80;31.80;;;;;;4984551;28;20038;-41
2021/01/04 05:57:14;;;;;;;0.80;0.60;;;20.80;31.80;;;;;;4994130;28;20058;-43
2021/01/04 05:59:55;;;;;;;0.85;0.60;;;20.80;31.80;;;;;;4978198;28;20061;-47
2021/01/04 06:02:36;;;;;;;1.02;0.70;;;20.80;31.70;;;;;;4988627;28;20042;-44
2021/01/04 06:05:13;;;;;;;1.42;0.77;;;20.80;31.70;;;;;;4978291;28;20046;-42
2021/01/04 06:07:42;;;;;;;1.08;0.60;;;20.80;31.70;;;;;;4981991;28;20061;-43
2021/01/04 06:10:23;;;;;;;1.20;0.70;;;20.80;31.80;;;;;;4993724;28;20117;-44
2021/01/04 06:12:51;;;;;;;0.90;0.70;;;20.80;31.70;;;;;;4993139;28;20030;-42
2021/01/04 06:15:35;;;;;;;0.77;0.68;;;20.80;31.70;;;;;;4996145;28;20361;-45
2021/01/04 06:18:21;;;;;;;0.75;0.68;;;20.80;31.80;;;;;;4988749;28;20031;-45
2021/01/04 06:20:53;;;;;;;0.68;0.60;;;20.80;31.80;;;;;;4977741;28;20358;-43
2021/01/04 06:23:33;;;;;;;0.80;0.70;;;20.80;32.00;;;;;;4977342;28;20058;-44
2021/01/04 06:26:19;;;;;;;0.57;0.55;;;20.80;31.80;;;;;;4997089;28;20027;-43
2021/01/04 06:29:04;;;;;;;0.98;0.60;;;20.80;31.80;;;;;;4991443;28;20034;-43
2021/01/04 06:31:39;;;;;;;0.93;0.60;;;20.80;31.80;;;;;;4994665;28;20026;-43
2021/01/04 06:34:17;;;;;;;0.90;0.70;;;20.80;31.80;;;;;;4997189;28;20038;-43
2021/01/04 06:36:47;;;;;;;0.73;0.50;;;20.70;32.00;;;;;;4979886;28;20027;-43
2021/01/04 06:39:26;;;;;;;1.27;0.70;;;20.80;32.00;;;;;;4977820;28;20043;-47
2021/01/04 06:41:53;;;;;;;1.10;0.70;;;20.70;32.00;;;;;;4979954;28;20038;-43
2021/01/04 06:44:24;;;;;;;0.73;0.60;;;20.70;32.00;;;;;;4982449;28;20389;-47
2021/01/04 06:47:17;;;;;;;1.67;0.80;;;20.70;32.00;;;;;;4986583;28;20030;-43
2021/01/04 06:50:10;;;;;;;1.20;0.73;;;20.70;32.00;;;;;;4977565;28;20034;-45
2021/01/04 06:52:54;;;;;;;1.08;0.68;;;20.70;32.00;;;;;;4980266;28;20454;-47
2021/01/04 06:55:38;;;;;;;3.00;0.70;;;20.70;32.00;;;;;;4984345;28;20038;-44
2021/01/04 06:58:18;;;;;;;0.98;0.88;;;20.70;32.00;;;;;;4987366;28;20030;-49
2021/01/04 07:01:14;;;;;;;0.88;0.68;;;20.70;32.00;;;;;;4994687;28;20041;-47
2021/01/04 07:03:43;;;;;;;1.08;0.70;;;20.70;32.00;;;;;;4988612;28;20145;-47
2021/01/04 07:06:23;;;;;;;1.15;0.68;;;20.70;32.00;;;;;;4983501;28;20085;-45
2021/01/04 07:09:07;;;;;;;0.93;0.70;;;20.70;32.00;;;;;;4980433;28;20046;-45
2021/01/04 07:11:56;;;;;;;1.27;0.70;;;20.70;32.00;;;;;;4976844;28;20026;-42
2021/01/04 07:14:40;;;;;;;0.95;0.70;;;20.70;32.00;;;;;;4978082;28;20359;-42
2021/01/04 07:17:28;;;;;;;1.55;0.75;;;20.70;32.00;;;;;;4994354;28;20057;-43
2021/01/04 07:20:13;;;;;;;1.08;0.82;;;20.60;31.90;;;;;;4981778;28;20050;-42
2021/01/04 07:22:57;;;;;;;;;;;20.60;31.90;;;;;;4996022;28;20069;-46
2021/01/04 07:25:46;;;;;;;1.65;0.95;;;20.60;31.90;;;;;;4991253;28;20009;-43
2021/01/04 07:28:50;;;;;;;1.42;0.90;;;20.60;32.00;;;;;;4982248;28;20311;-46
2021/01/04 07:31:55;;;;;;;1.08;0.70;;;20.60;31.90;;;;;;4966021;28;20050;-47
2021/01/04 07:34:29;;;;;;;1.13;0.80;;;20.60;31.90;;;;;;4989160;28;20041;-47
2021/01/04 07:37:03;;;;;;;3.03;0.80;;;20.60;31.90;;;;;;4987383;28;20037;-46
2021/01/04 07:39:42;;;;;;;1.02;0.90;;;20.60;31.90;;;;;;4981563;28;20472;-45
2021/01/04 07:42:22;;;;;;;1.42;0.70;;;20.60;32.00;;;;;;4978857;28;20066;-44
2021/01/04 07:45:09;;;;;;;0.93;0.65;;;20.60;32.00;;;;;;4985186;28;20043;-41
2021/01/04 07:47:53;;;;;;;1.20;1.00;;;20.60;32.00;;;;;;4975945;28;20109;-44
2021/01/04 07:50:37;;;;;;;2.10;0.87;;;20.60;32.00;;;;;;4982401;28;20026;-43
2021/01/04 07:53:10;;;;;;;1.07;0.67;;;20.60;32.00;;;;;;4976712;28;20289;-42
2021/01/04 07:56:00;;;;;;;1.42;0.95;;;20.60;32.00;;;;;;4983938;28;20118;-46
2021/01/04 07:59:03;;;;;;;1.55;1.08;;;20.60;31.90;;;;;;4976672;28;20077;-44
2021/01/04 08:02:02;;;;;;;1.70;1.10;;;20.60;31.90;;;;;;4979705;28;20622;-44
2021/01/04 08:04:48;;;;;;;1.02;0.73;;;20.60;32.00;;;;;;4982121;28;20934;-50
2021/01/04 08:07:41;;;;;;;1.70;1.17;;;20.60;32.00;;;;;;4988643;28;20068;-45
2021/01/04 08:10:13;;;;;;;1.20;0.90;;;20.60;31.90;;;;;;4980082;28;20038;-44
2021/01/04 08:13:06;;;;;;;2.47;1.20;;;20.60;32.00;;;;;;4982177;28;20118;-42
2021/01/04 08:15:42;;;;;;;1.00;0.90;;;20.60;32.00;;;;;;4989420;28;20136;-48
2021/01/04 08:18:15;;;;;;;2.08;0.85;;;20.50;32.20;;;;;;4989659;28;20030;-48
2021/01/04 08:21:01;;;;;;;1.73;1.20;;;20.60;32.60;;;;;;4982952;28;20054;-47
2021/01/04 08:24:03;;;;;;;2.63;1.00;;;20.60;32.90;;;;;;4987280;28;20039;-45
2021/01/04 08:26:47;;;;;;;2.08;0.85;;;20.60;33.10;;;;;;4939820;29;20039;-49
2021/01/04 08:29:32;;;;;;;1.45;1.00;;;20.60;33.20;;;;;;4986340;28;20042;-48
2021/01/04 08:32:09;;;;;;;1.58;1.08;;;20.70;33.20;;;;;;4979857;28;20438;-46
2021/01/04 08:34:43;;;;;;;2.13;0.95;;;20.70;33.10;;;;;;4982194;28;20524;-49
2021/01/04 08:37:10;;;;;;;1.80;1.10;;;20.70;33.00;;;;;;4988304;28;20114;-45
2021/01/04 08:39:46;;;;;;;3.75;1.00;;;20.70;32.90;;;;;;4987453;28;20030;-50
2021/01/04 08:42:29;;;;;;;1.58;0.93;;;20.70;32.70;;;;;;4992255;28;20330;-43
2021/01/04 08:44:57;;;;;;;2.67;1.00;;;20.80;32.50;;;;;;4978880;28;20093;-46
2021/01/04 08:47:35;;;;;;;1.75;1.00;;;20.80;32.40;;;;;;4996776;28;20034;-47
2021/01/04 08:50:08;;;;;;;1.40;1.00;;;20.80;32.30;;;;;;4998018;28;20033;-45
2021/01/04 08:52:46;;;;;;;1.40;0.88;;;20.90;32.20;;;;;;4998604;28;20026;-43
2021/01/04 08:55:29;;;;;;;1.55;0.90;;;20.90;32.10;;;;;;4988619;28;20125;-46
2021/01/04 08:57:55;;;;;;;1.10;0.88;;;20.90;32.10;;;;;;4994722;28;20085;-46
2021/01/04 09:00:27;;;;;;;1.95;1.20;;;21.00;32.10;;;;;;4981095;28;20030;-49
2021/01/04 09:02:54;;;;;;;2.10;1.23;;;21.00;32.00;;;;;;4994851;28;20322;-49
2021/01/04 09:05:38;;;;;;;2.38;1.10;;;21.00;31.90;;;;;;4988425;28;20129;-52
2021/01/04 09:08:07;;;;;;;1.55;0.88;;;21.00;31.80;;;;;;4979795;28;20047;-46
2021/01/04 09:10:48;;;;;;;1.80;1.08;;;21.10;31.90;;;;;;4990996;28;20026;-47
2021/01/04 09:13:23;;;;;;;2.97;1.25;;;21.10;31.80;;;;;;4982133;28;20035;-47
2021/01/04 09:15:51;;;;;;;1.20;0.98;;;21.10;32.00;;;;;;4986553;28;20042;-45
2021/01/04 09:18:48;;;;;;;2.10;1.00;;;21.20;32.10;;;;;;4987718;28;20036;-48
2021/01/04 09:21:31;;;;;;;1.70;1.00;;;21.20;32.20;;;;;;4980621;28;20057;-47
2021/01/04 09:24:19;;;;;;;2.30;1.13;;;21.30;32.20;;;;;;4989548;28;20364;-48
2021/01/04 09:26:46;;;;;;;4.53;1.10;;;21.30;32.10;;;;;;4994930;28;20034;-47
2021/01/04 09:29:12;;;;;;;1.80;1.00;;;21.40;32.10;;;;;;4995791;28;20339;-44
2021/01/04 09:32:01;;;;;;;2.33;1.17;;;21.40;32.00;;;;;;4995900;28;20038;-45
2021/01/04 09:34:30;;;;;;;2.22;1.15;;;21.50;32.00;;;;;;4995324;28;20049;-48
2021/01/04 09:37:07;;;;;;;2.58;1.30;;;21.60;32.00;;;;;;4984271;28;20114;-48
2021/01/04 09:39:36;;;;;;;1.40;0.93;;;21.60;31.90;;;;;;4968144;28;20347;-48
2021/01/04 09:42:05;;;;;;;1.95;0.98;;;21.70;31.90;;;;;;4987112;28;20782;-47
2021/01/04 09:44:31;;;;;;;2.38;1.00;;;21.70;31.80;;;;;;4985124;28;20350;-47
2021/01/04 09:47:03;;;;;;;1.50;0.82;;;21.80;31.70;;;;;;4993000;28;20329;-52
2021/01/04 09:49:42;;;;;;;1.60;1.10;;;21.90;31.70;;;;;;4979896;28;20476;-44
2021/01/04 09:52:23;;;;;;;1.52;1.00;;;21.90;31.60;;;;;;4973014;28;20473;-47
2021/01/04 09:55:00;;;;;;;2.42;1.30;;;22.00;31.60;;;;;;4970416;28;20030;-48
2021/01/04 09:57:26;;;;;;;1.60;0.80;;;22.00;31.50;;;;;;4983841;28;20427;-46
2021/01/04 09:59:53;;;;;;;2.28;1.27;;;22.10;31.50;;;;;;4987395;28;20118;-45
2021/01/04 10:02:29;;;;;;;1.90;0.80;;;22.10;31.40;;;;;;4985211;28;20045;-45
2021/01/04 10:05:04;;;;;;;2.03;1.08;;;22.20;31.40;;;;;;4985395;28;20134;-46
2021/01/04 10:07:33;;;;;;;1.85;0.90;;;22.30;31.30;;;;;;4990204;28;20050;-48
2021/01/04 10:09:59;;;;;;;1.88;1.10;;;22.30;31.30;;;;;;4989359;28;20061;-45
2021/01/04 10:12:27;;;;;;;1.73;1.00;;;22.40;31.30;;;;;;4989282;28;20058;-45
2021/01/04 10:14:55;;;;;;;1.77;0.93;;;22.40;31.20;;;;;;4988447;28;20044;-45
2021/01/04 10:17:44;;;;;;;1.90;1.17;;;22.50;31.10;;;;;;4986511;28;20026;-51
2021/01/04 10:20:28;;;;;;;2.15;0.93;;;22.50;31.00;;;;;;4989307;28;20038;-44
2021/01/04 10:22:58;;;;;;;1.73;0.82;;;22.60;30.90;;;;;;4989318;28;20045;-48
2021/01/04 10:25:49;;;;;;;2.60;1.00;;;22.60;30.90;;;;;;4979202;28;20090;-46
2021/01/04 10:28:15;;;;;;;1.73;0.70;;;22.70;30.80;;;;;;4981819;28;20049;-47
2021/01/04 10:30:41;;;;;;;1.35;0.73;;;22.70;30.80;;;;;;4989198;28;20026;-48
2021/01/04 10:33:20;;;;;;;0.80;0.77;;;22.70;30.60;;;;;;4966332;28;20065;-44
2021/01/04 10:35:46;;;;;;;1.23;0.65;;;22.70;30.50;;;;;;4979952;28;20033;-45
2021/01/04 10:38:21;;;;;;;1.02;0.70;;;22.80;30.50;;;;;;4985622;28;20394;-46
2021/01/04 10:40:49;;;;;;;0.90;0.70;;;22.80;30.40;;;;;;4982496;28;20073;-45
2021/01/04 10:43:33;;;;;;;1.00;0.70;;;22.80;30.30;;;;;;4983332;28;20426;-48
2021/01/04 10:45:58;;;;;;;1.17;0.80;;;22.90;30.30;;;;;;4989919;28;20331;-46
2021/01/04 10:48:27;;;;;;;1.40;0.90;;;22.90;30.20;;;;;;4990417;28;20033;-47
2021/01/04 10:50:57;;;;;;;1.25;0.88;;;22.90;30.20;;;;;;4982680;28;20113;-49
2021/01/04 10:53:39;;;;;;;1.65;0.93;;;22.90;30.10;;;;;;4983827;28;20027;-47
2021/01/04 10:56:17;;;;;;;1.15;0.60;;;22.90;30.10;;;;;;4980294;28;20113;-48
2021/01/04 10:58:46;;;;;;;1.58;0.80;;;22.90;30.00;;;;;;4985447;28;20772;-47
2021/01/04 11:01:24;;;;;;;1.42;0.75;;;22.90;30.00;;;;;;4988519;28;20126;-48
2021/01/04 11:03:56;;;;;;;0.93;0.70;;;22.90;30.00;;;;;;4983674;28;20042;-44
2021/01/04 11:06:32;;;;;;;1.05;0.70;;;22.90;30.00;;;;;;4981471;28;20454;-45
2021/01/04 11:08:58;;;;;;;1.45;0.70;;;22.90;29.90;;;;;;4989216;28;20383;-44
2021/01/04 11:11:37;;;;;;;1.05;0.65;;;22.90;29.90;;;;;;4988765;28;20343;-44
2021/01/04 11:14:17;;;;;;;2.08;0.73;;;22.90;29.90;;;;;;4991969;28;20038;-44
2021/01/04 11:16:56;;;;;;;1.08;0.63;;;22.90;29.90;;;;;;4982829;28;20030;-44
2021/01/04 11:19:40;;;;;;;0.73;0.55;;;22.90;29.80;;;;;;4977842;28;20034;-45
2021/01/04 11:22:24;;;;;;;1.70;0.70;;;22.90;29.80;;;;;;4979093;28;20061;-44
2021/01/04 11:24:51;;;;;;;0.80;0.70;;;22.90;29.80;;;;;;4992176;28;20046;-45
2021/01/04 11:27:18;;;;;;;1.17;0.60;;;22.90;29.90;;;;;;4990442;28;20036;-48
2021/01/04 11:29:44;;;;;;;1.40;0.77;;;22.90;29.90;;;;;;4959669;28;20101;-46
2021/01/04 11:32:13;;;;;;;1.25;0.65;;;22.90;29.80;;;;;;4989904;28;20315;-48
2021/01/04 11:34:42;;;;;;;1.23;0.63;;;22.90;29.80;;;;;;4989592;28;20362;-47
2021/01/04 11:37:08;;;;;;;1.02;0.57;;;22.90;29.80;;;;;;4979468;28;20027;-45
2021/01/04 11:39:36;;;;;;;1.23;0.57;;;22.90;29.80;;;;;;4979275;28;20359;-46
2021/01/04 11:42:03;;;;;;;0.52;0.50;;;22.90;29.80;;;;;;4977366;28;20437;-44
2021/01/04 11:44:29;;;;;;;1.25;0.50;;;22.90;29.70;;;;;;4983512;28;20050;-44
2021/01/04 11:46:55;;;;;;;0.98;0.50;;;22.80;30.10;;;;;;4988886;28;20031;-47
2021/01/04 11:49:22;;;;;;;1.05;0.60;;;22.90;29.70;;;;;;4970578;28;20070;-53
2021/01/04 11:51:51;;;;;;;0.77;0.60;;;22.90;29.80;;;;;;4992269;28;20066;-48
2021/01/04 11:54:18;;;;;;;2.85;0.55;;;22.90;30.00;;;;;;4989241;28;20041;-50
2021/01/04 11:56:44;;;;;;;1.05;0.68;;;22.80;30.10;;;;;;4981524;28;20026;-49
2021/01/04 11:59:10;;;;;;;1.85;0.68;;;22.90;30.50;;;;;;4980921;28;20453;-49
2021/01/04 12:01:36;;;;;;;0.80;0.50;;;22.90;30.60;;;;;;4985027;28;20037;-49
2021/01/04 12:04:03;;;;;;;0.90;0.65;;;22.90;30.80;;;;;;4990022;28;20050;-50
2021/01/04 12:06:29;;;;;;;1.05;0.90;;;22.90;30.90;;;;;;4989200;28;20038;-52
2021/01/04 12:08:55;;;;;;;0.93;0.70;;;23.00;31.10;;;;;;4988423;28;20519;-52
2021/01/04 12:11:21;;;;;;;1.15;0.70;;;23.00;31.10;;;;;;4988489;28;20034;-52
2021/01/04 12:13:49;;;;;;;1.15;0.85;;;23.00;31.10;;;;;;4982459;28;20035;-50
2021/01/04 12:16:14;;;;;;;1.17;0.70;;;23.00;31.10;;;;;;4985985;28;20366;-48
2021/01/04 12:18:40;;;;;;;1.25;0.80;;;23.00;31.00;;;;;;4990056;28;20022;-52
2021/01/04 12:21:06;;;;;;;1.33;0.63;;;23.00;30.90;;;;;;4988932;28;20048;-47
2021/01/04 12:23:32;;;;;;;1.10;0.60;;;23.00;30.80;;;;;;4980535;28;20039;-51
2021/01/04 12:25:58;;;;;;;1.05;0.60;;;23.00;30.70;;;;;;4988861;28;20692;-48
2021/01/04 12:28:24;;;;;;;1.25;0.70;;;23.00;30.60;;;;;;4983594;28;20093;-56
2021/01/04 12:30:50;;;;;;;0.90;0.60;;;23.00;30.50;;;;;;4992720;28;20128;-47
2021/01/04 12:33:16;;;;;;;2.72;0.73;;;23.00;30.50;;;;;;4992813;28;20037;-49
2021/01/04 12:35:41;;;;;;;1.15;0.80;;;23.10;30.50;;;;;;4995539;28;20021;-49
2021/01/04 12:38:08;;;;;;;2.25;0.68;;;23.00;30.30;;;;;;4991543;28;20124;-49
2021/01/04 12:40:35;;;;;;;1.10;0.60;;;23.00;30.20;;;;;;4988293;28;20029;-47
2021/01/04 12:43:02;;;;;;;0.90;0.60;;;23.00;30.10;;;;;;4991673;28;20030;-51
2021/01/04 12:45:31;;;;;;;2.47;0.50;;;23.10;30.00;;;;;;4967943;28;20046;-49
2021/01/04 12:47:57;;;;;;;2.05;0.80;;;23.00;30.00;;;;;;4988559;28;20092;-50
2021/01/04 12:50:23;;;;;;;2.13;0.65;;;23.10;30.00;;;;;;4988763;28;20381;-51
2021/01/04 12:52:49;;;;;;;1.45;0.85;;;23.10;30.00;;;;;;4985245;28;20030;-50
2021/01/04 12:55:17;;;;;;;0.77;0.60;;;23.10;30.00;;;;;;4988599;28;20030;-50
2021/01/04 12:57:47;;;;;;;1.27;0.60;;;23.00;30.00;;;;;;4978531;28;20106;-53
2021/01/04 13:00:20;;;;;;;1.88;0.65;;;23.10;30.10;;;;;;4982616;28;20022;-53
2021/01/04 13:02:45;;;;;;;1.77;0.70;;;23.00;30.10;;;;;;4991486;28;20034;-52
2021/01/04 13:05:12;;;;;;;1.35;0.73;;;23.10;30.20;;;;;;4988724;28;20065;-49
2021/01/04 13:07:37;;;;;;;0.82;0.60;;;23.00;30.10;;;;;;4968940;28;20357;-47
2021/01/04 13:10:04;;;;;;;0.57;0.50;;;23.00;30.10;;;;;;4989741;28;20030;-51
2021/01/04 13:12:29;;;;;;;2.22;0.88;;;23.00;30.10;;;;;;4990880;28;20053;-47
2021/01/04 13:14:55;;;;;;;1.95;0.80;;;23.00;30.10;;;;;;4981024;28;20027;-49
2021/01/04 13:17:21;;;;;;;1.13;0.70;;;23.10;30.20;;;;;;4982041;28;20433;-46
2021/01/04 13:19:47;;;;;;;1.27;0.70;;;23.20;30.10;;;;;;4979468;28;21993;-48
2021/01/04 13:22:12;;;;;;;1.77;0.60;;;23.30;30.00;;;;;;4994158;28;20033;-45
2021/01/04 13:24:41;;;;;;;2.80;1.00;;;23.40;29.90;;;;;;4986226;28;20480;-48
2021/01/04 13:27:07;;;;;;;1.67;0.77;;;23.60;29.90;;;;;;4987769;28;20030;-45
2021/01/04 13:29:32;;;;;;;2.17;0.60;;;23.70;29.70;;;;;;4983534;28;20781;-48
2021/01/04 13:32:07;;;;;;;0.70;0.60;;;23.80;29.50;;;;;;4987517;28;20042;-55
2021/01/04 13:34:33;;;;;;;1.33;0.88;;;23.90;29.30;;;;;;4996548;28;20057;-55
2021/01/04 13:37:00;;;;;;;0.77;0.63;;;24.00;29.40;;;;;;4994954;28;20034;-56